M I D A S
Marine Information and Data Acquisition System
Tripno 1006 of the Zeeleeuw from 2005-08-29 10:29:05 to 2005-08-29 15:20:27
Back to CruiseResearch ActivitiesStationsMapUnderway DataData graphs

EquipmentUnitsComment
TimeDGPSUTC
LatitudeDGPSDM.mWGS84
LongitudeDGPSDM.mWGS84
TemperatureSBE03/SBE38deg celciusITS90
ConductivitySBE21S/mITS90
SalinitySBE21 Practical Salinity Units
ChlorophylAChelsea fluorimeterg/lCalibrated in Aceton
Missing or incorrect values are displayed as -999
Sea surface data collected by the RV Zeeleeuw from 2005-08-29 06:28:51 to 2005-08-29 15:33:22
Time Latitude Longitude Temperature Conductivity Salinity ChlorophylA
2005-08-29 06:29:56 51°13.596 2°56.094 -999 0.005302 0.031391 -0.71383
2005-08-29 06:30:56 51°13.596 2°56.094 -999 0.005302 0.031393 -0.71383
2005-08-29 06:31:56 51°13.597 2°56.095 -999 0.005302 0.031395 -0.71383
2005-08-29 06:32:56 51°13.598 2°56.095 -999 0.005302 0.031397 -0.71383
2005-08-29 06:33:56 51°13.598 2°56.095 -999 0.005302 0.031399 -0.71383
2005-08-29 06:34:56 51°13.598 2°56.095 -999 0.005302 0.031401 -0.71383
2005-08-29 06:35:56 51°13.598 2°56.094 -999 0.005302 0.031403 -0.71383
2005-08-29 06:36:56 51°13.597 2°56.094 -999 0.005302 0.031405 -0.71383
2005-08-29 06:37:56 51°13.598 2°56.094 -999 0.005302 0.031407 -0.71383
2005-08-29 06:38:56 51°13.598 2°56.094 -999 0.005302 0.031409 -0.71383
2005-08-29 06:39:56 51°13.598 2°56.094 -999 0.005302 0.031411 -0.71383
2005-08-29 06:40:56 51°13.599 2°56.095 -999 0.005302 0.031413 -0.71383
2005-08-29 06:41:56 51°13.598 2°56.095 -999 0.005302 0.031415 -0.71383
2005-08-29 06:42:56 51°13.599 2°56.095 -999 0.005302 0.031417 -0.71383
2005-08-29 06:43:56 51°13.599 2°56.095 -999 0.005302 0.031419 -0.71383
2005-08-29 06:44:56 51°13.599 2°56.095 -999 0.005302 0.03142 -0.71383
2005-08-29 06:45:57 51°13.599 2°56.095 -999 0.005302 0.031423 -0.71383
2005-08-29 06:46:56 51°13.599 2°56.096 -999 0.005302 0.031425 -0.71383
2005-08-29 06:47:56 51°13.598 2°56.095 -999 0.005302 0.031427 -0.71383
2005-08-29 06:48:56 51°13.597 2°56.095 -999 0.005302 0.031429 -0.71383
2005-08-29 06:49:56 51°13.597 2°56.094 -999 0.005302 0.031431 -0.71383
2005-08-29 06:50:57 51°13.598 2°56.095 -999 0.005302 0.031432 -0.71383
2005-08-29 06:51:56 51°13.598 2°56.095 -999 0.005302 0.031434 -0.71383
2005-08-29 06:52:56 51°13.599 2°56.096 -999 0.005302 0.031436 -0.71383
2005-08-29 06:53:56 51°13.598 2°56.094 -999 0.005302 0.031438 -0.71383
2005-08-29 06:54:56 51°13.598 2°56.094 -999 0.005302 0.03144 -0.71383
2005-08-29 06:55:57 51°13.597 2°56.094 -999 0.005302 0.031442 -0.71383
2005-08-29 06:56:56 51°13.598 2°56.095 -999 0.005302 0.031444 -0.71383
2005-08-29 06:57:56 51°13.598 2°56.094 -999 0.005302 0.031445 -0.71383
2005-08-29 06:58:56 51°13.598 2°56.094 -999 0.005302 0.031447 -0.71383
2005-08-29 06:59:56 51°13.598 2°56.094 -999 0.005302 0.031449 -0.71383
2005-08-29 07:00:56 51°13.598 2°56.094 -999 0.005302 0.031451 -0.71383
2005-08-29 07:01:56 51°13.599 2°56.094 -999 0.005302 0.031453 -0.71383
2005-08-29 07:02:56 51°13.599 2°56.095 -999 0.005302 0.031454 -0.71383
2005-08-29 07:03:56 51°13.596 2°56.095 -999 0.005302 0.031456 -0.71383
2005-08-29 07:04:56 51°13.597 2°56.094 -999 0.005302 0.031458 -0.71383
2005-08-29 07:05:56 51°13.596 2°56.094 -999 0.005302 0.031459 -0.71383
2005-08-29 07:06:56 51°13.597 2°56.095 -999 0.005302 0.031461 -0.71383
2005-08-29 07:07:56 51°13.598 2°56.094 -999 0.005302 0.031463 -0.71383
2005-08-29 07:08:56 51°13.597 2°56.094 -999 0.005302 0.031465 -0.71383
2005-08-29 07:09:56 51°13.596 2°56.094 -999 0.005302 0.031467 -0.71383
2005-08-29 07:10:56 51°13.596 2°56.094 -999 0.005302 0.031468 -0.71383
2005-08-29 07:11:56 51°13.596 2°56.094 -999 0.005302 0.03147 -0.71383
2005-08-29 07:12:56 51°13.597 2°56.095 -999 0.005302 0.031472 -0.71383
2005-08-29 07:13:57 51°13.598 2°56.095 -999 0.005302 0.031473 -0.71383
2005-08-29 07:14:56 51°13.598 2°56.094 -999 0.005302 0.031475 -0.71383
2005-08-29 07:15:56 51°13.597 2°56.094 -999 0.005302 0.031477 -0.71383
2005-08-29 07:16:56 51°13.598 2°56.094 -999 0.005302 0.031479 -0.71383
2005-08-29 07:17:56 51°13.597 2°56.094 -999 0.005302 0.03148 -0.71383
2005-08-29 07:18:56 51°13.597 2°56.095 -999 0.005302 0.031482 -0.71383
2005-08-29 07:19:56 51°13.596 2°56.096 -999 0.005302 0.031484 -0.71383
2005-08-29 07:20:56 51°13.597 2°56.098 -999 0.005302 0.031485 -0.71383
2005-08-29 07:21:56 51°13.599 2°56.097 -999 0.005302 0.031487 -0.71383
2005-08-29 07:22:56 51°13.598 2°56.095 -999 0.005302 0.031489 -0.71383
2005-08-29 07:23:56 51°13.596 2°56.096 -999 0.005302 0.03149 -0.71383
2005-08-29 07:24:56 51°13.596 2°56.094 -999 0.005302 0.031492 -0.71383
2005-08-29 07:25:56 51°13.596 2°56.095 -999 0.005302 0.031493 -0.71383
2005-08-29 07:26:56 51°13.597 2°56.095 -999 0.005302 0.031495 -0.71383
2005-08-29 07:27:56 51°13.598 2°56.095 -999 0.005302 0.031496 -0.71383
2005-08-29 07:28:56 51°13.598 2°56.095 -999 0.005302 0.031498 -0.71383
2005-08-29 07:29:56 51°13.599 2°56.095 -999 0.005302 0.031499 -0.71383
2005-08-29 07:30:56 51°13.599 2°56.095 -999 0.005302 0.031501 -0.71383
2005-08-29 07:31:57 51°13.596 2°56.097 -999 0.005302 0.031503 -0.71383
2005-08-29 07:32:56 51°13.597 2°56.096 -999 0.005302 0.031504 -0.71383
2005-08-29 07:33:56 51°13.599 2°56.096 -999 0.005302 0.031505 -0.71383
2005-08-29 07:34:56 51°13.599 2°56.096 -999 0.005302 0.031507 -0.71383
2005-08-29 07:35:56 51°13.599 2°56.096 -999 0.005302 0.031509 -0.71383
2005-08-29 07:36:56 51°13.598 2°56.096 -999 0.005302 0.03151 -0.71383
2005-08-29 07:37:56 51°13.597 2°56.096 -999 0.005302 0.031511 -0.71383
2005-08-29 07:38:57 51°13.598 2°56.097 -999 0.005302 0.031512 -0.71383
2005-08-29 07:39:56 51°13.598 2°56.097 -999 0.005302 0.031513 -0.71383
2005-08-29 07:40:57 51°13.598 2°56.097 -999 0.005302 0.031514 -0.71383
2005-08-29 07:41:56 51°13.599 2°56.097 -999 1.484036 9.382994 -0.71383
2005-08-29 07:42:56 51°13.599 2°56.097 -999 0.652054 3.846915 -0.71383
2005-08-29 07:43:56 51°13.599 2°56.097 -999 0.552188 3.224448 -0.71383
2005-08-29 07:44:56 51°13.599 2°56.096 -999 0.507099 2.942418 -0.71383
2005-08-29 07:45:56 51°13.598 2°56.096 -999 0.48929 2.831149 -0.71383
2005-08-29 07:46:56 51°13.598 2°56.096 -999 0.479099 2.766683 -0.71383
2005-08-29 07:47:57 51°13.599 2°56.097 -999 0.473026 2.727384 -0.71383
2005-08-29 07:48:56 51°13.599 2°56.097 -999 0.468599 2.699065 -0.71383
2005-08-29 07:49:56 51°13.599 2°56.097 -999 0.46582 2.68069 -0.71383
2005-08-29 07:50:56 51°13.599 2°56.096 -999 0.463864 2.667979 -0.71383
2005-08-29 07:51:56 51°13.599 2°56.096 -999 0.462526 2.659103 -0.71383
2005-08-29 07:52:56 51°13.598 2°56.096 -999 0.461497 2.652166 -0.71383
2005-08-29 07:53:56 51°13.598 2°56.095 -999 0.460673 2.646447 -0.71383
2005-08-29 07:54:56 51°13.598 2°56.095 -999 0.460056 2.642491 -0.71383
2005-08-29 07:55:56 51°13.598 2°56.095 -999 0.459747 2.640649 -0.71383
2005-08-29 07:56:57 51°13.598 2°56.094 -999 0.459335 2.637997 -0.71383
2005-08-29 07:57:56 51°13.598 2°56.094 -999 0.459335 2.638088 -0.71383
2005-08-29 07:58:56 51°13.598 2°56.094 -999 0.458923 2.635708 -0.71383
2005-08-29 07:59:56 51°13.599 2°56.094 -999 0.458923 2.635708 -0.71383
2005-08-29 08:00:56 51°13.599 2°56.094 -999 0.458821 2.63517 -0.71383
2005-08-29 08:01:57 51°13.598 2°56.094 -999 0.458718 2.634586 -0.71383
2005-08-29 08:02:56 51°13.598 2°56.094 -999 0.458718 2.634541 -0.71383
2005-08-29 08:03:56 51°13.598 2°56.094 -999 0.458512 2.633238 -0.71383
2005-08-29 08:04:56 51°13.598 2°56.095 -999 0.458512 2.633328 -0.71383
2005-08-29 08:05:57 51°13.598 2°56.096 -999 0.458409 2.63279 -0.71383
2005-08-29 08:06:56 51°13.599 2°56.096 -999 0.458409 2.632835 -0.71383
2005-08-29 08:07:56 51°13.599 2°56.096 -999 0.458306 2.632297 -0.71383
2005-08-29 08:08:56 51°13.599 2°56.096 -999 0.458306 2.632388 -0.71383
2005-08-29 08:09:56 51°13.599 2°56.096 -999 0.458203 2.631849 -0.71383
2005-08-29 08:10:57 51°13.599 2°56.096 -999 0.458203 2.63194 -0.71383
2005-08-29 08:11:56 51°13.596 2°56.096 -999 0.458409 2.633289 -0.71383
2005-08-29 08:12:56 51°13.597 2°56.097 -999 0.458203 2.632122 -0.71383
2005-08-29 08:13:56 51°13.599 2°56.096 -999 0.4581 2.631538 -0.71383
2005-08-29 08:14:57 51°13.599 2°56.096 -999 0.458203 2.632212 -0.71383
2005-08-29 08:15:56 51°13.6 2°56.095 -999 0.4581 2.631583 -0.71383
2005-08-29 08:16:56 51°13.6 2°56.095 -999 0.457997 2.630954 -0.71383
2005-08-29 08:17:57 51°13.599 2°56.095 -999 0.457894 2.63028 -0.71383
2005-08-29 08:18:56 51°13.599 2°56.094 -999 0.457791 2.62956 -0.71383
2005-08-29 08:19:56 51°13.599 2°56.095 -999 0.457791 2.629515 -0.71383
2005-08-29 08:20:56 51°13.599 2°56.094 -999 0.457791 2.629469 -0.71383
2005-08-29 08:21:57 51°13.599 2°56.094 -999 0.457791 2.629379 -0.71383
2005-08-29 08:22:56 51°13.599 2°56.095 -999 0.457482 2.627447 -0.71383
2005-08-29 08:23:56 51°13.598 2°56.095 -999 0.457585 2.627985 -0.71383
2005-08-29 08:24:56 51°13.598 2°56.095 -999 0.457482 2.627266 -0.71383
2005-08-29 08:25:57 51°13.598 2°56.095 -999 0.457482 2.62713 -0.71383
2005-08-29 08:26:57 51°13.599 2°56.095 -999 0.457482 2.627039 -0.71383
2005-08-29 08:27:56 51°13.599 2°56.094 -999 0.457482 2.626949 -0.71383
2005-08-29 08:28:57 51°13.598 2°56.094 -999 0.457482 2.626813 -0.71383
2005-08-29 08:29:56 51°13.599 2°56.094 -999 0.457482 2.626723 -0.71383
2005-08-29 08:30:57 51°13.599 2°56.094 -999 0.457482 2.626587 -0.71383
2005-08-29 08:31:56 51°13.599 2°56.093 -999 0.457482 2.626542 -0.71383
2005-08-29 08:32:57 51°13.6 2°56.094 -999 0.457482 2.626406 -0.71383
2005-08-29 08:33:56 51°13.599 2°56.093 -999 0.457585 2.626989 -0.71383
2005-08-29 08:34:56 51°13.599 2°56.094 -999 0.457585 2.626899 -0.71383
2005-08-29 08:35:57 51°13.598 2°56.095 -999 0.457688 2.627437 -0.71383
2005-08-29 08:36:56 51°13.598 2°56.095 -999 0.457688 2.627347 -0.71383
2005-08-29 08:37:57 51°13.599 2°56.095 -999 0.457791 2.627885 -0.71383
2005-08-29 08:38:56 51°13.598 2°56.094 -999 0.457894 2.628423 -0.71383
2005-08-29 08:39:55 51°13.599 2°56.095 -999 0.457894 2.628333 -0.71383
2005-08-29 08:40:55 51°13.598 2°56.095 -999 0.457997 2.628916 -0.71383
2005-08-29 08:41:55 51°13.598 2°56.095 -999 0.457894 2.628152 -0.71383
2005-08-29 08:42:55 51°13.598 2°56.095 -999 0.457997 2.62869 -0.71383
2005-08-29 08:43:55 51°13.598 2°56.095 -999 0.4581 2.629273 -0.71383
2005-08-29 08:44:55 51°13.598 2°56.095 -999 0.4581 2.629137 -0.71383
2005-08-29 08:45:55 51°13.599 2°56.094 -999 0.4581 2.629047 -0.71383
2005-08-29 08:46:55 51°13.598 2°56.094 -999 0.4581 2.628956 -0.71383
2005-08-29 08:47:55 51°13.598 2°56.094 -999 0.4581 2.628866 -0.71383
2005-08-29 08:48:55 51°13.598 2°56.094 -999 0.458203 2.629358 -0.71383
2005-08-29 08:49:55 51°13.597 2°56.094 -999 0.458203 2.629268 -0.71383
2005-08-29 08:50:55 51°13.597 2°56.095 -999 0.458203 2.629177 -0.71383
2005-08-29 08:51:55 51°13.597 2°56.096 -999 0.458203 2.629042 -0.71383
2005-08-29 08:52:55 51°13.598 2°56.095 -999 0.458203 2.628951 -0.71383
2005-08-29 08:53:55 51°13.598 2°56.095 -999 0.458306 2.629444 -0.71383
2005-08-29 08:54:55 51°13.599 2°56.095 -999 0.458306 2.629353 -0.71383
2005-08-29 08:55:55 51°13.599 2°56.094 -999 0.458512 2.630474 -0.71383
2005-08-29 08:56:55 51°13.598 2°56.096 -999 0.458512 2.630384 -0.71383
2005-08-29 08:57:55 51°13.599 2°56.096 -999 0.458615 2.630876 -0.71383
2005-08-29 08:58:55 51°13.598 2°56.096 -999 0.458615 2.630786 -0.71383
2005-08-29 08:59:55 51°13.6 2°56.096 -999 0.45882 2.631906 -0.71383
2005-08-29 09:00:55 51°13.599 2°56.096 -999 0.458923 2.632444 -0.71383
2005-08-29 09:01:55 51°13.601 2°56.096 -999 0.458923 2.632308 -0.71383
2005-08-29 09:02:55 51°13.598 2°56.095 -999 0.458923 2.632172 -0.71383
2005-08-29 09:03:55 51°13.599 2°56.094 -999 0.459026 2.632665 -0.71383
2005-08-29 09:04:55 51°13.597 2°56.092 -999 0.459129 2.633202 -0.71383
2005-08-29 09:05:55 51°13.599 2°56.09 -999 0.459129 2.633066 -0.71383
2005-08-29 09:06:55 51°13.594 2°56.096 -999 0.459232 2.633559 -0.71383
2005-08-29 09:07:55 51°13.561 2°56.145 -999 0.459232 2.633468 -0.71383
2005-08-29 09:08:55 51°13.55 2°56.225 -999 0.459747 2.636472 -0.71383
2005-08-29 09:09:56 51°13.538 2°56.205 -999 0.459644 2.635618 -0.71383
2005-08-29 09:10:55 51°13.538 2°56.21 -999 0.459541 2.634899 -0.71383
2005-08-29 09:11:55 51°13.538 2°56.214 -999 0.459747 2.636019 -0.74754
2005-08-29 09:12:55 51°13.548 2°56.196 -999 0.459644 2.635074 -0.71383
2005-08-29 09:13:55 51°13.568 2°56.124 -999 0.459747 2.635793 -0.71383
2005-08-29 09:14:55 51°13.588 2°56.06 -999 0.45985 2.636194 -0.71383
2005-08-29 09:15:55 51°13.609 2°56.002 -999 0.459953 2.636686 -0.71383
2005-08-29 09:16:55 51°13.632 2°55.946 -999 0.459953 2.636595 -0.71383
2005-08-29 09:17:55 51°13.659 2°55.892 -999 0.460056 2.637133 -0.71383
2005-08-29 09:18:55 51°13.69 2°55.828 -999 0.460159 2.637624 -0.71383
2005-08-29 09:19:55 51°13.718 2°55.775 -999 0.460159 2.637489 -0.71383
2005-08-29 09:20:55 51°13.744 2°55.736 -999 0.460261 2.638026 -0.71383
2005-08-29 09:21:55 51°13.788 2°55.676 -999 0.460261 2.63789 -0.71383
2005-08-29 09:22:55 51°13.877 2°55.599 -999 0.460261 2.637754 -0.71383
2005-08-29 09:23:55 51°13.978 2°55.528 -999 0.460364 2.638246 -0.71383
2005-08-29 09:24:55 51°14.085 2°55.457 -999 0.460467 2.638783 -0.71383
2005-08-29 09:25:55 51°14.203 2°55.353 -999 0.460467 2.638601 -0.71383
2005-08-29 09:26:55 51°14.312 2°55.17 -999 0.460467 2.638465 -0.71383
2005-08-29 09:27:55 51°14.406 2°54.949 -999 0.46057 2.638912 -0.74754
2005-08-29 09:28:55 51°14.422 2°54.649 -999 0.46057 2.638776 -0.71383
2005-08-29 09:29:55 51°14.381 2°54.321 -999 0.46057 2.638685 -0.71383
2005-08-29 09:30:55 51°14.298 2°54.016 -999 0.460673 2.639177 -0.71383
2005-08-29 09:31:55 51°14.208 2°53.715 -999 0.460776 2.639668 -0.71383
2005-08-29 09:32:54 51°14.112 2°53.422 -999 0.460776 2.639487 -0.71383
2005-08-29 09:33:55 51°14 2°53.136 -999 0.460879 2.640069 -0.71383
2005-08-29 09:34:55 51°13.89 2°52.85 -999 0.460982 2.640606 -0.71383
2005-08-29 09:35:55 51°13.78 2°52.563 -999 0.461085 2.641097 -0.71383
2005-08-29 09:36:55 51°13.67 2°52.277 -999 0.461394 2.642979 1.342443
2005-08-29 09:37:55 51°13.56 2°51.991 -999 0.4616 2.644143 -0.578993
2005-08-29 09:38:55 51°13.45 2°51.705 -999 0.461805 2.645307 -0.578993
2005-08-29 09:39:55 51°13.34 2°51.417 -999 0.462011 2.646471 -0.545283
2005-08-29 09:40:55 51°13.229 2°51.13 -999 0.462217 2.647635 -0.545283
2005-08-29 09:41:55 51°13.119 2°50.842 -999 0.46232 2.648217 -0.545283
2005-08-29 09:42:55 51°13.007 2°50.555 -999 0.462526 2.649381 -0.545283
2005-08-29 09:43:55 51°12.897 2°50.263 -999 0.462732 2.650635 -0.545283
2005-08-29 09:44:55 51°12.786 2°49.973 -999 0.462835 2.651217 -0.511574
2005-08-29 09:45:55 51°12.674 2°49.683 -999 0.463041 2.652427 -0.511574
2005-08-29 09:46:55 51°12.563 2°49.393 -999 0.463247 2.653636 -0.477864
2005-08-29 09:47:55 51°12.472 2°49.083 -999 0.463349 2.654263 -0.444155
2005-08-29 09:48:55 51°12.386 2°48.769 -999 0.463452 2.654845 -0.410446
2005-08-29 09:49:55 51°12.3 2°48.456 -999 0.463555 2.655473 -0.376736
2005-08-29 09:50:55 51°12.218 2°48.14 -999 0.463761 2.656727 -0.343027
2005-08-29 09:51:55 51°12.137 2°47.825 -999 0.463761 2.656682 -0.275608
2005-08-29 09:52:55 51°12.05 2°47.514 -999 0.463864 2.657264 -0.241899
2005-08-29 09:53:55 51°11.964 2°47.2 -999 0.463967 2.657891 -0.208189
2005-08-29 09:54:55 51°11.879 2°46.885 -999 0.463967 2.657846 -0.14077
2005-08-29 09:55:55 51°11.793 2°46.57 -999 4.133661 30.376843 -1.050924
2005-08-29 09:56:55 51°11.708 2°46.255 -999 4.484994 33.814061 -1.152053
2005-08-29 09:57:55 51°11.622 2°45.941 -999 4.493503 33.923229 -1.118343
2005-08-29 09:58:55 51°11.536 2°45.627 -999 4.497551 33.964661 -1.118343
2005-08-29 09:59:55 51°11.451 2°45.312 -999 4.503051 34.02433 -1.118343
2005-08-29 10:00:55 51°11.364 2°44.997 -999 4.512287 34.105778 -1.118343
2005-08-29 10:01:55 51°11.278 2°44.682 -999 4.515089 34.157264 -1.118343
2005-08-29 10:02:54 51°11.192 2°44.37 -999 4.522146 34.201814 -1.084634
2005-08-29 10:03:55 51°11.106 2°44.051 -999 4.527438 34.240018 -1.084634
2005-08-29 10:04:55 51°11.019 2°43.739 -999 4.527957 34.260333 -1.084634
2005-08-29 10:05:55 51°10.932 2°43.425 -999 4.528269 34.272266 -1.084634
2005-08-29 10:06:55 51°10.847 2°43.109 -999 4.530137 34.289431 -1.084634
2005-08-29 10:07:55 51°10.761 2°42.795 -999 4.531382 34.300653 -1.084634
2005-08-29 10:08:55 51°10.676 2°42.483 -999 4.529722 34.298541 -1.050924
2005-08-29 10:09:55 51°10.59 2°42.166 -999 4.529411 34.30987 -1.050924
2005-08-29 10:10:55 51°10.51 2°41.852 -999 4.529307 34.310321 -1.050924
2005-08-29 10:11:55 51°10.456 2°41.519 -999 4.525779 34.303011 -1.050924
2005-08-29 10:12:55 51°10.402 2°41.191 -999 4.525779 34.31167 -1.050924
2005-08-29 10:13:54 51°10.347 2°40.863 -999 4.528893 34.335441 -1.017215
2005-08-29 10:14:55 51°10.292 2°40.529 -999 4.534289 34.36659 -1.050924
2005-08-29 10:15:55 51°10.236 2°40.195 -999 4.536987 34.38416 -1.017215
2005-08-29 10:16:55 51°10.181 2°39.867 -999 4.536987 34.394172 -1.050924
2005-08-29 10:17:55 51°10.125 2°39.537 -999 4.532836 34.356923 -1.050924
2005-08-29 10:18:55 51°10.069 2°39.206 -999 4.541553 34.409574 -1.017215
2005-08-29 10:19:55 51°10.012 2°38.873 -999 4.539893 34.414173 -1.017215
2005-08-29 10:20:55 51°9.958 2°38.545 -999 4.54228 34.429765 -1.017215
2005-08-29 10:21:55 51°9.904 2°38.216 -999 4.548195 34.457266 -1.017215
2005-08-29 10:22:55 51°9.851 2°37.884 -999 4.554214 34.485625 -1.017215
2005-08-29 10:23:55 51°9.796 2°37.551 -999 4.55629 34.504572 -1.017215
2005-08-29 10:24:54 51°9.742 2°37.226 -999 4.561168 34.525223 -1.017215
2005-08-29 10:25:55 51°9.685 2°36.893 -999 4.567186 34.533488 -1.017215
2005-08-29 10:26:55 51°9.629 2°36.562 -999 4.567498 34.538129 -1.017215
2005-08-29 10:27:55 51°9.574 2°36.229 -999 4.567602 34.542348 -1.017215
2005-08-29 10:28:55 51°9.518 2°35.895 -999 4.567706 34.543896 -1.017215
2005-08-29 10:29:55 51°9.462 2°35.562 -999 4.567394 34.541925 -1.017215
2005-08-29 10:30:55 51°9.422 2°35.223 -999 4.567498 34.541469 -1.017215
2005-08-29 10:31:55 51°9.392 2°34.877 -999 4.568847 34.546889 -1.017215
2005-08-29 10:32:55 51°9.354 2°34.538 -999 4.570819 34.553575 -1.017215
2005-08-29 10:33:55 51°9.307 2°34.202 -999 4.573932 34.566589 -1.017215
2005-08-29 10:34:55 51°9.261 2°33.869 -999 4.578187 34.573238 -1.017215
2005-08-29 10:35:54 51°9.214 2°33.535 -999 4.576112 34.570353 -1.017215
2005-08-29 10:36:55 51°9.171 2°33.276 -999 4.570923 34.553786 -1.017215
2005-08-29 10:37:55 51°9.142 2°33.066 -999 4.572064 34.547432 -0.983506
2005-08-29 10:38:55 51°9.11 2°32.898 -999 4.576215 34.535889 -1.017215
2005-08-29 10:39:55 51°9.101 2°32.799 -999 4.580158 34.541265 -1.017215
2005-08-29 10:40:55 51°9.101 2°32.77 -999 4.581819 34.543319 -1.017215
2005-08-29 10:41:55 51°9.099 2°32.776 -999 4.582649 34.546342 -0.983506
2005-08-29 10:42:55 51°9.098 2°32.781 -999 4.575489 34.54907 -0.983506
2005-08-29 10:43:55 51°9.099 2°32.785 -999 4.573206 34.545086 -0.983506
2005-08-29 10:44:55 51°9.1 2°32.787 -999 4.574347 34.542077 -0.983506
2005-08-29 10:45:55 51°9.102 2°32.789 -999 4.573517 34.544387 -0.983506
2005-08-29 10:46:55 51°9.105 2°32.789 -999 4.575904 34.541917 -0.983506
2005-08-29 10:47:54 51°9.109 2°32.79 -999 4.578394 34.544994 -0.983506
2005-08-29 10:48:54 51°9.113 2°32.791 -999 4.577149 34.545787 -0.983506
2005-08-29 10:49:55 51°9.117 2°32.792 -999 4.576526 34.544519 -0.983506
2005-08-29 10:50:55 51°9.123 2°32.793 -999 4.579847 34.543293 -0.983506
2005-08-29 10:51:54 51°9.129 2°32.795 -999 4.581819 34.54465 -0.983506
2005-08-29 10:52:55 51°9.136 2°32.799 -999 4.58213 34.54595 -0.983506
2005-08-29 10:53:55 51°9.142 2°32.802 -999 4.580262 34.546137 -0.983506
2005-08-29 10:54:55 51°9.15 2°32.806 -999 4.580158 34.544594 -0.983506
2005-08-29 10:55:55 51°9.157 2°32.809 -999 4.583168 34.543408 -0.983506
2005-08-29 10:56:55 51°9.164 2°32.811 -999 4.587423 34.542113 -0.983506
2005-08-29 10:57:55 51°9.172 2°32.815 -999 4.59147 34.541737 -0.983506
2005-08-29 10:58:55 51°9.178 2°32.816 -999 4.594168 34.544586 -0.983506
2005-08-29 10:59:55 51°9.185 2°32.819 -999 4.594895 34.544741 -0.983506
2005-08-29 11:00:54 51°9.192 2°32.82 -999 4.595829 34.543332 -0.983506
2005-08-29 11:01:55 51°9.2 2°32.822 -999 4.59697 34.54566 -0.983506
2005-08-29 11:02:55 51°9.207 2°32.824 -999 4.598008 34.546452 -0.983506
2005-08-29 11:03:55 51°9.214 2°32.826 -999 4.598008 34.545789 -0.983506
2005-08-29 11:04:55 51°9.22 2°32.828 -999 4.598838 34.545496 -0.983506
2005-08-29 11:05:55 51°9.227 2°32.829 -999 4.599773 34.546076 -0.983506
2005-08-29 11:06:55 51°9.234 2°32.83 -999 4.601122 34.54618 -0.983506
2005-08-29 11:07:55 51°9.265 2°32.779 -999 4.601744 34.54745 -0.983506
2005-08-29 11:08:55 51°9.222 2°32.695 -999 4.604028 34.547476 -0.983506
2005-08-29 11:09:55 51°9.118 2°32.699 -999 4.602056 34.548085 -0.983506
2005-08-29 11:10:55 51°9.033 2°32.691 -999 4.599876 34.554896 -0.949796
2005-08-29 11:11:55 51°8.982 2°32.666 -999 4.588668 34.547973 -0.949796
2005-08-29 11:12:55 51°8.947 2°32.638 -999 4.589913 34.54188 -0.983506
2005-08-29 11:13:55 51°8.921 2°32.613 -999 4.593753 34.541088 -0.949796
2005-08-29 11:14:55 51°8.901 2°32.589 -999 4.596867 34.542799 -0.983506
2005-08-29 11:15:55 51°8.893 2°32.585 -999 4.600188 34.543614 -0.949796
2005-08-29 11:16:55 51°8.889 2°32.585 -999 4.597386 34.550482 -0.983506
2005-08-29 11:17:55 51°8.884 2°32.586 -999 4.588876 34.54906 -0.949796
2005-08-29 11:18:55 51°8.878 2°32.586 -999 4.582753 34.549215 -0.949796
2005-08-29 11:19:54 51°8.872 2°32.587 -999 4.578706 34.545628 -0.949796
2005-08-29 11:20:55 51°8.866 2°32.587 -999 4.578083 34.545025 -0.949796
2005-08-29 11:21:55 51°8.859 2°32.588 -999 4.576734 34.544941 -0.949796
2005-08-29 11:22:55 51°8.852 2°32.586 -999 4.578187 34.542573 -0.949796
2005-08-29 11:23:55 51°8.84 2°32.582 -999 4.586074 34.538698 -0.949796
2005-08-29 11:24:55 51°8.815 2°32.567 -999 4.594895 34.541428 -0.949796
2005-08-29 11:25:54 51°8.787 2°32.551 -999 4.599254 34.540385 -0.949796
2005-08-29 11:26:55 51°8.758 2°32.535 -999 4.604546 34.543246 -0.949796
2005-08-29 11:27:55 51°8.728 2°32.524 -999 4.60548 34.545151 -0.949796
2005-08-29 11:28:55 51°8.697 2°32.517 -999 4.601848 34.55097 -0.949796
2005-08-29 11:29:55 51°8.667 2°32.517 -999 4.595103 34.554447 -0.949796
2005-08-29 11:30:55 51°8.636 2°32.525 -999 4.59064 34.551327 -0.949796
2005-08-29 11:31:55 51°8.608 2°32.544 -999 4.595518 34.548 -0.949796
2005-08-29 11:32:55 51°8.583 2°32.57 -999 4.602886 34.54647 -0.949796
2005-08-29 11:33:55 51°8.562 2°32.604 -999 4.614613 34.547282 -0.949796
2005-08-29 11:34:54 51°8.547 2°32.644 -999 4.622086 34.549358 -0.949796
2005-08-29 11:35:55 51°8.537 2°32.689 -999 4.626134 34.5563 -0.949796
2005-08-29 11:36:55 51°8.531 2°32.743 -999 4.624681 34.556624 -0.949796
2005-08-29 11:37:55 51°8.472 2°32.777 -999 4.620218 34.561347 -0.949796
2005-08-29 11:38:55 51°8.365 2°32.708 -999 4.6115 34.567993 -0.949796
2005-08-29 11:39:55 51°8.23 2°32.657 -999 4.599981 34.590914 -0.949796
2005-08-29 11:40:55 51°8.07 2°32.692 -999 4.596555 34.515689 -0.949796
2005-08-29 11:41:55 51°8.031 2°32.809 -999 4.611604 34.570847 -0.949796
2005-08-29 11:42:55 51°8.052 2°32.892 -999 4.614718 34.573223 -0.949796
2005-08-29 11:43:55 51°8.081 2°32.97 -999 4.615756 34.579298 -0.949796
2005-08-29 11:44:55 51°8.105 2°33.046 -999 4.618143 34.583495 -0.949796
2005-08-29 11:45:55 51°8.128 2°33.117 -999 4.617935 34.584393 -0.949796
2005-08-29 11:46:55 51°8.155 2°33.177 -999 4.62053 34.581755 -0.916087
2005-08-29 11:47:55 51°8.182 2°33.232 -999 4.621983 34.583393 -0.949796
2005-08-29 11:48:55 51°8.21 2°33.287 -999 4.622502 34.582472 -0.949796
2005-08-29 11:49:54 51°8.237 2°33.343 -999 4.621879 34.582523 -0.949796
2005-08-29 11:50:55 51°8.264 2°33.401 -999 4.620737 34.582178 -0.916087
2005-08-29 11:51:55 51°8.289 2°33.462 -999 4.619284 34.58054 -0.916087
2005-08-29 11:52:55 51°8.312 2°33.525 -999 4.617831 34.580882 -0.916087
2005-08-29 11:53:54 51°8.333 2°33.59 -999 4.616067 34.580592 -0.916087
2005-08-29 11:54:55 51°8.355 2°33.654 -999 4.615444 34.578664 -0.949796
2005-08-29 11:55:55 51°8.376 2°33.717 -999 4.613472 34.577953 -0.916087
2005-08-29 11:56:55 51°8.397 2°33.779 -999 4.6115 34.575923 -0.916087
2005-08-29 11:57:55 51°8.419 2°33.84 -999 4.612227 34.574758 -0.916087
2005-08-29 11:58:55 51°8.441 2°33.902 -999 4.614199 34.574808 -0.916087
2005-08-29 11:59:55 51°8.462 2°33.964 -999 4.614925 34.574967 -0.916087
2005-08-29 12:00:55 51°8.483 2°34.026 -999 4.616482 34.573515 -0.916087
2005-08-29 12:01:55 51°8.504 2°34.088 -999 4.617727 34.573412 -0.916087
2005-08-29 12:02:55 51°8.524 2°34.149 -999 4.619803 34.573023 -0.916087
2005-08-29 12:03:55 51°8.546 2°34.21 -999 4.620218 34.573868 -0.916087
2005-08-29 12:04:55 51°8.567 2°34.271 -999 4.621152 34.573793 -0.916087
2005-08-29 12:05:55 51°8.589 2°34.332 -999 4.622501 34.574564 -0.916087
2005-08-29 12:06:55 51°8.612 2°34.392 -999 4.624058 34.573782 -0.916087
2005-08-29 12:07:55 51°8.635 2°34.451 -999 4.625615 34.573661 -0.916087
2005-08-29 12:08:55 51°8.657 2°34.51 -999 4.627276 34.575069 -0.916087
2005-08-29 12:09:55 51°8.68 2°34.569 -999 4.628417 34.575421 -0.916087
2005-08-29 12:10:55 51°8.703 2°34.628 -999 4.628521 34.574317 -0.916087
2005-08-29 12:11:55 51°8.726 2°34.687 -999 4.628625 34.573871 -0.916087
2005-08-29 12:12:55 51°8.749 2°34.746 -999 4.628936 34.57319 -0.916087
2005-08-29 12:13:55 51°8.771 2°34.805 -999 4.62987 34.573778 -0.916087
2005-08-29 12:14:55 51°8.793 2°34.863 -999 4.629766 34.572909 -0.916087
2005-08-29 12:15:55 51°8.815 2°34.922 -999 4.630493 34.571103 -0.916087
2005-08-29 12:16:55 51°8.837 2°34.981 -999 4.631219 34.570612 -0.916087
2005-08-29 12:17:55 51°8.859 2°35.042 -999 4.631427 34.569064 -0.916087
2005-08-29 12:18:55 51°8.88 2°35.106 -999 4.631946 34.566181 -0.916087
2005-08-29 12:19:55 51°8.903 2°35.169 -999 4.632153 34.564634 -0.916087
2005-08-29 12:20:55 51°8.925 2°35.233 -999 4.632361 34.562431 -0.916087
2005-08-29 12:21:55 51°8.948 2°35.295 -999 4.632361 34.562431 -0.916087
2005-08-29 12:22:55 51°8.97 2°35.336 -999 4.632569 34.561542 -0.916087
2005-08-29 12:23:55 51°8.988 2°35.361 -999 4.63288 34.56152 -0.916087
2005-08-29 12:24:55 51°9.003 2°35.379 -999 4.633399 34.561922 -0.916087
2005-08-29 12:25:55 51°9.017 2°35.413 -999 4.633191 34.563468 -0.916087
2005-08-29 12:26:55 51°9.01 2°35.457 -999 4.62821 34.567107 -0.916087
2005-08-29 12:27:55 51°8.989 2°35.49 -999 4.629974 34.564788 -0.916087
2005-08-29 12:28:55 51°8.962 2°35.503 -999 4.629247 34.567907 -0.916087
2005-08-29 12:29:55 51°8.939 2°35.507 -999 4.628832 34.569691 -0.916087
2005-08-29 12:30:55 51°8.919 2°35.507 -999 4.629455 34.570302 -0.916087
2005-08-29 12:31:55 51°8.901 2°35.503 -999 4.630908 34.571292 -0.916087
2005-08-29 12:32:55 51°8.849 2°35.48 -999 4.632776 34.573784 -0.916087
2005-08-29 12:33:55 51°8.789 2°35.381 -999 4.637032 34.581796 -0.916087
2005-08-29 12:34:55 51°8.757 2°35.269 -999 4.640457 34.587458 -0.916087
2005-08-29 12:35:55 51°8.739 2°35.163 -999 4.639938 34.589026 -0.916087
2005-08-29 12:36:55 51°8.725 2°35.077 -999 4.637136 34.587916 -0.916087
2005-08-29 12:37:46 51°19.36 2°45.244 -999 0.005405 0.031792 -0.71383
2005-08-29 12:39:15 51°8.691 2°34.907 -999 4.638485 34.58738 -0.916087
2005-08-29 12:40:15 51°8.677 2°34.839 -999 4.637655 34.58569 -0.882377
2005-08-29 12:41:15 51°8.664 2°34.771 -999 4.637862 34.584799 -0.916087
2005-08-29 12:42:15 51°8.652 2°34.702 -999 4.636824 34.585312 -0.916087
2005-08-29 12:43:15 51°8.641 2°34.632 -999 4.636513 34.584022 -0.916087
2005-08-29 12:44:14 51°8.629 2°34.564 -999 4.635164 34.583901 -0.882377
2005-08-29 12:45:15 51°8.613 2°34.495 -999 4.631739 34.5835 -0.916087
2005-08-29 12:46:15 51°8.595 2°34.429 -999 4.628833 34.584161 -0.882377
2005-08-29 12:47:15 51°8.575 2°34.363 -999 4.627276 34.58165 -0.916087
2005-08-29 12:48:15 51°8.555 2°34.297 -999 4.626445 34.578643 -0.916087
2005-08-29 12:49:15 51°8.536 2°34.232 -999 4.625096 34.57853 -0.916087
2005-08-29 12:50:15 51°8.514 2°34.167 -999 4.623851 34.575994 -0.882377
2005-08-29 12:51:15 51°8.493 2°34.104 -999 4.623747 34.575124 -0.882377
2005-08-29 12:52:15 51°8.469 2°34.042 -999 4.624266 34.572888 -0.882377
2005-08-29 12:53:15 51°8.445 2°33.98 -999 4.625719 34.572556 -0.882377
2005-08-29 12:54:15 51°8.422 2°33.918 -999 4.627276 34.57178 -0.882377
2005-08-29 12:55:15 51°8.399 2°33.856 -999 4.627795 34.572837 -0.916087
2005-08-29 12:56:15 51°8.375 2°33.794 -999 4.627483 34.573518 -0.882377
2005-08-29 12:57:15 51°8.352 2°33.731 -999 4.627068 34.573331 -0.916087
2005-08-29 12:58:15 51°8.329 2°33.668 -999 4.627483 34.572203 -0.916087
2005-08-29 12:59:15 51°8.306 2°33.605 -999 4.626757 34.573354 -0.882377
2005-08-29 13:00:15 51°8.284 2°33.54 -999 4.625096 34.573921 -0.882377
2005-08-29 13:01:15 51°8.262 2°33.476 -999 4.624162 34.573335 -0.882377
2005-08-29 13:02:15 51°8.239 2°33.412 -999 4.623643 34.572278 -0.882377
2005-08-29 13:03:15 51°8.217 2°33.347 -999 4.623643 34.572278 -0.882377
2005-08-29 13:04:15 51°8.194 2°33.282 -999 4.623643 34.572937 -0.882377
2005-08-29 13:05:15 51°8.171 2°33.218 -999 4.622813 34.57388 -0.882377
2005-08-29 13:06:15 51°8.149 2°33.154 -999 4.622709 34.574986 -0.882377
2005-08-29 13:07:15 51°8.126 2°33.089 -999 4.621983 34.574825 -0.882377
2005-08-29 13:08:15 51°8.104 2°33.025 -999 4.62219 34.576565 -0.882377
2005-08-29 13:09:15 51°8.081 2°32.96 -999 4.621152 34.576429 -0.882377
2005-08-29 13:10:15 51°8.058 2°32.891 -999 4.620633 34.576691 -0.882377
2005-08-29 13:11:15 51°8.043 2°32.816 -999 4.620218 34.576505 -0.882377
2005-08-29 13:12:15 51°8.037 2°32.737 -999 4.619907 34.57719 -0.882377
2005-08-29 13:13:15 51°8.034 2°32.658 -999 4.619907 34.57719 -0.882377
2005-08-29 13:14:16 51°8.028 2°32.576 -999 4.627068 34.574647 -0.882377
2005-08-29 13:15:15 51°8.025 2°32.495 -999 4.630908 34.582467 -0.882377
2005-08-29 13:16:15 51°8.023 2°32.428 -999 4.627898 34.582918 -0.882377
2005-08-29 13:17:15 51°8.022 2°32.374 -999 4.627587 34.582284 -0.882377
2005-08-29 13:18:15 51°8.021 2°32.329 -999 4.626134 34.585252 -0.882377
2005-08-29 13:19:15 51°8.021 2°32.293 -999 4.623436 34.585032 -0.882377
2005-08-29 13:20:15 51°8.02 2°32.261 -999 4.62053 34.584393 -0.882377
2005-08-29 13:21:15 51°8.02 2°32.234 -999 4.619077 34.583416 -0.882377
2005-08-29 13:22:15 51°8.051 2°32.179 -999 4.616275 34.582335 -0.882377
2005-08-29 13:23:15 51°8.17 2°32.262 -999 4.618039 34.570748 -0.882377
2005-08-29 13:24:15 51°8.328 2°32.471 -999 4.617935 34.590996 -0.882377
2005-08-29 13:25:15 51°8.49 2°32.689 -999 4.599566 34.589407 -0.882377
2005-08-29 13:26:15 51°8.656 2°32.904 -999 4.596037 34.566964 -0.882377
2005-08-29 13:27:15 51°8.827 2°33.108 -999 4.601018 34.570472 -0.882377
2005-08-29 13:28:15 51°8.998 2°33.311 -999 4.601018 34.572461 -0.882377
2005-08-29 13:29:15 51°9.171 2°33.518 -999 4.604754 34.566819 -0.882377
2005-08-29 13:30:15 51°9.341 2°33.72 -999 4.609009 34.566885 -0.882377
2005-08-29 13:31:15 51°9.512 2°33.93 -999 4.604651 34.581839 -0.882377
2005-08-29 13:32:15 51°9.678 2°34.146 -999 4.595518 34.567899 -0.882377
2005-08-29 13:33:15 51°9.842 2°34.359 -999 4.594065 34.560295 -0.882377
2005-08-29 13:34:15 51°10.009 2°34.569 -999 4.598216 34.548862 -0.882377
2005-08-29 13:35:15 51°10.175 2°34.784 -999 4.599669 34.544541 -0.882377
2005-08-29 13:36:15 51°10.34 2°34.998 -999 4.606207 34.552581 -0.882377
2005-08-29 13:37:15 51°10.506 2°35.211 -999 4.605481 34.568298 -0.882377
2005-08-29 13:38:15 51°10.671 2°35.42 -999 4.598112 34.559915 -0.882377
2005-08-29 13:39:15 51°10.837 2°35.635 -999 4.596244 34.550806 -0.882377
2005-08-29 13:40:15 51°11.001 2°35.844 -999 4.598423 34.543987 -0.882377
2005-08-29 13:41:15 51°11.167 2°36.054 -999 4.602159 34.539698 -0.882377
2005-08-29 13:42:15 51°11.333 2°36.264 -999 4.603405 34.538934 -0.882377
2005-08-29 13:43:15 51°11.499 2°36.474 -999 4.608282 34.525785 -0.882377
2005-08-29 13:44:15 51°11.668 2°36.678 -999 4.612745 34.52897 -0.882377
2005-08-29 13:45:15 51°11.844 2°36.871 -999 4.617103 34.508933 -0.882377
2005-08-29 13:46:15 51°12.02 2°37.055 -999 4.617103 34.492514 -0.882377
2005-08-29 13:47:15 51°12.197 2°37.243 -999 4.610668 34.471441 -0.882377
2005-08-29 13:48:15 51°12.372 2°37.433 -999 4.607554 34.440103 -0.882377
2005-08-29 13:49:15 51°12.541 2°37.638 -999 4.606205 34.432079 -0.882377
2005-08-29 13:50:15 51°12.709 2°37.843 -999 4.606205 34.419622 -0.882377
2005-08-29 13:51:15 51°12.878 2°38.052 -999 4.604752 34.431714 -0.882377
2005-08-29 13:52:15 51°13.046 2°38.259 -999 4.606308 34.422457 -0.882377
2005-08-29 13:53:15 51°13.213 2°38.464 -999 4.612328 34.431574 -0.882377
2005-08-29 13:54:15 51°13.382 2°38.671 -999 4.610357 34.460297 -0.882377
2005-08-29 13:55:16 51°13.554 2°38.881 -999 4.616065 34.466771 -0.882377
2005-08-29 13:56:15 51°13.72 2°39.085 -999 4.616377 34.487087 -0.882377
2005-08-29 13:57:15 51°13.893 2°39.29 -999 4.624264 34.462005 -0.882377
2005-08-29 13:58:14 51°14.067 2°39.475 -999 4.625405 34.444753 -0.882377
2005-08-29 13:59:15 51°14.248 2°39.666 -999 4.59126 34.382244 -0.882377
2005-08-29 14:00:14 51°14.425 2°39.846 -999 4.569051 34.319867 -0.882377
2005-08-29 14:01:15 51°14.611 2°40.022 -999 4.570814 34.282118 -0.882377
2005-08-29 14:02:16 51°14.798 2°40.201 -999 4.577351 34.257721 -0.882377
2005-08-29 14:03:15 51°14.981 2°40.374 -999 4.57787 34.224178 -0.882377
2005-08-29 14:04:15 51°15.159 2°40.527 -999 4.573303 34.169647 -0.882377
2005-08-29 14:05:15 51°15.273 2°40.62 -999 4.557216 34.074002 -0.848668
2005-08-29 14:06:15 51°15.347 2°40.674 -999 4.53698 33.99476 -0.882377
2005-08-29 14:07:15 51°15.405 2°40.713 -999 4.532518 33.95407 -0.882377
2005-08-29 14:08:15 51°15.445 2°40.758 -999 4.528678 33.940048 -0.882377
2005-08-29 14:09:15 51°15.469 2°40.785 -999 4.51882 33.926853 -0.848668
2005-08-29 14:10:15 51°15.477 2°40.784 -999 4.52214 33.907914 -0.848668
2005-08-29 14:11:16 51°15.478 2°40.774 -999 4.52515 33.908491 -0.848668
2005-08-29 14:12:15 51°15.468 2°40.759 -999 4.524112 33.906926 -0.848668
2005-08-29 14:13:15 51°15.458 2°40.743 -999 4.51882 33.913833 -0.848668
2005-08-29 14:14:15 51°15.444 2°40.721 -999 4.51633 33.915682 -0.848668
2005-08-29 14:15:15 51°15.426 2°40.686 -999 4.511557 33.92441 -0.848668
2005-08-29 14:16:15 51°15.413 2°40.654 -999 4.509897 33.918261 -0.848668
2005-08-29 14:17:15 51°15.404 2°40.624 -999 4.508029 33.920807 -0.848668
2005-08-29 14:18:15 51°15.397 2°40.605 -999 4.509171 33.914101 -0.848668
2005-08-29 14:19:15 51°15.393 2°40.592 -999 4.508859 33.916701 -0.848668
2005-08-29 14:20:15 51°15.388 2°40.58 -999 4.513528 33.903843 -0.848668
2005-08-29 14:21:15 51°15.384 2°40.568 -999 4.51716 33.901833 -0.848668
2005-08-29 14:22:16 51°15.379 2°40.558 -999 4.518197 33.904698 -0.848668
2005-08-29 14:23:15 51°15.375 2°40.548 -999 4.519027 33.870743 -0.848668
2005-08-29 14:24:16 51°15.376 2°40.548 -999 4.522555 33.870512 -0.848668
2005-08-29 14:25:15 51°15.389 2°40.567 -999 4.527432 33.888072 -0.848668
2005-08-29 14:26:15 51°15.412 2°40.607 -999 4.527847 33.867593 -0.848668
2005-08-29 14:27:16 51°15.436 2°40.663 -999 4.518716 33.883709 -0.848668
2005-08-29 14:28:15 51°15.456 2°40.728 -999 4.511038 33.880294 -0.848668
2005-08-29 14:29:14 51°15.468 2°40.798 -999 4.500247 33.87612 -0.848668
2005-08-29 14:30:15 51°15.46 2°40.854 -999 4.508962 33.8349 -0.848668
2005-08-29 14:31:15 51°15.444 2°40.884 -999 4.50616 33.824343 -0.848668
2005-08-29 14:32:16 51°15.426 2°40.901 -999 4.508235 33.802855 -0.848668
2005-08-29 14:33:15 51°15.409 2°40.907 -999 4.509583 33.790861 -0.848668
2005-08-29 14:34:15 51°15.393 2°40.906 -999 4.516224 33.776077 -0.848668
2005-08-29 14:35:16 51°15.344 2°40.94 -999 4.520167 33.776832 -0.848668
2005-08-29 14:36:14 51°15.282 2°41.155 -999 4.513422 33.739725 -0.848668
2005-08-29 14:37:15 51°15.24 2°41.475 -999 4.519128 33.746255 -0.848668
2005-08-29 14:38:15 51°15.228 2°41.798 -999 4.507402 33.670714 -0.848668
2005-08-29 14:39:15 51°15.239 2°42.119 -999 4.514872 33.624788 -0.848668
2005-08-29 14:40:15 51°15.239 2°42.445 -999 4.510928 33.583614 -0.848668
2005-08-29 14:41:15 51°15.238 2°42.768 -999 4.51072 33.548734 -0.848668
2005-08-29 14:42:14 51°15.237 2°43.091 -999 4.517568 33.526866 -0.848668
2005-08-29 14:43:15 51°15.233 2°43.419 -999 4.502315 33.487666 -0.848668
2005-08-29 14:44:15 51°15.294 2°43.725 -999 4.51518 33.419138 -0.848668
2005-08-29 14:45:15 51°15.295 2°44.05 -999 4.518914 33.382081 -0.848668
2005-08-29 14:46:15 51°15.289 2°44.376 -999 4.494113 33.214616 -0.848668
2005-08-29 14:47:15 51°15.279 2°44.699 -999 4.481454 33.134295 -0.814958
2005-08-29 14:48:15 51°15.255 2°45.027 -999 4.455516 33.120424 -0.814958
2005-08-29 14:49:15 51°15.232 2°45.35 -999 4.450432 33.085691 -0.848668
2005-08-29 14:50:16 51°15.211 2°45.677 -999 4.456344 33.018222 -0.814958
2005-08-29 14:51:14 51°15.188 2°45.987 -999 4.449498 33.071013 -0.814958
2005-08-29 14:52:15 51°15.163 2°46.316 -999 4.437669 32.955166 -0.814958
2005-08-29 14:53:15 51°15.142 2°46.632 -999 4.442129 32.89546 -0.814958
2005-08-29 14:54:15 51°15.12 2°46.956 -999 4.450429 32.923119 -0.814958
2005-08-29 14:55:14 51°15.096 2°47.275 -999 4.452506 33.002642 -0.814958
2005-08-29 14:56:15 51°15.071 2°47.606 -999 4.458627 33.014031 -0.814958
2005-08-29 14:57:14 51°15.048 2°47.926 -999 4.459975 32.964142 -0.814958
2005-08-29 14:58:14 51°15.026 2°48.25 -999 4.449806 32.859017 -0.814958
2005-08-29 14:59:15 51°15.002 2°48.575 -999 4.435177 32.808726 -0.781249
2005-08-29 15:00:14 51°14.977 2°48.894 -999 4.422934 32.735303 -0.781249
2005-08-29 15:01:15 51°14.952 2°49.222 -999 4.413805 32.716692 -0.781249
2005-08-29 15:02:15 51°14.925 2°49.546 -999 4.414012 32.684345 -0.781249
2005-08-29 15:03:15 51°14.898 2°49.866 -999 4.412144 32.634913 -0.781249
2005-08-29 15:04:14 51°14.87 2°50.186 -999 4.410795 32.615744 -0.74754
2005-08-29 15:05:14 51°14.844 2°50.51 -999 4.412247 32.580962 -0.74754
2005-08-29 15:06:15 51°14.814 2°50.838 -999 4.415877 32.570392 -0.74754
2005-08-29 15:07:15 51°14.786 2°51.157 -999 4.417537 32.544848 -0.74754
2005-08-29 15:08:15 51°14.759 2°51.479 -999 4.421996 32.477774 -0.74754
2005-08-29 15:09:16 51°14.729 2°51.804 -999 4.42874 32.535596 -0.74754
2005-08-29 15:10:14 51°14.699 2°52.122 -999 4.412557 32.505668 -0.74754
2005-08-29 15:11:15 51°14.67 2°52.449 -999 4.391912 32.424164 -0.71383
2005-08-29 15:12:14 51°14.641 2°52.771 -999 4.372306 32.355866 -0.71383
2005-08-29 15:13:16 51°14.612 2°53.101 -999 4.377596 32.312151 -0.71383
2005-08-29 15:14:15 51°14.58 2°53.416 -999 4.372096 32.18966 -0.71383
2005-08-29 15:15:15 51°14.549 2°53.745 -999 4.326769 32.150699 -0.646411
2005-08-29 15:16:15 51°14.517 2°54.069 -999 4.317019 32.082001 -0.612702
2005-08-29 15:17:15 51°14.485 2°54.389 -999 4.327285 31.994144 -0.646411
2005-08-29 15:18:16 51°14.443 2°54.707 -999 4.346159 31.869689 -0.646411
2005-08-29 15:19:15 51°14.388 2°54.985 -999 4.333194 31.821954 -0.612702
2005-08-29 15:20:15 51°14.292 2°55.225 -999 4.326969 31.717308 -0.578993
2005-08-29 15:21:17 51°14.163 2°55.385 -999 4.180323 30.804818 -0.343027
2005-08-29 15:22:17 51°14.043 2°55.474 -999 0.039771 0.21827 2.690819
2005-08-29 15:23:17 51°13.918 2°55.562 -999 0.435554 2.333423 1.342443
2005-08-29 15:24:17 51°13.799 2°55.661 -999 0.082573 0.407222 1.342443
2005-08-29 15:25:17 51°13.708 2°55.794 -999 0.070432 0.347012 1.578409
2005-08-29 15:26:17 51°13.651 2°55.922 -999 0.072284 0.356975 1.612118
2005-08-29 15:27:17 51°13.613 2°56.033 -999 0.074856 0.371553 1.612118
2005-08-29 15:28:17 51°13.599 2°56.086 -999 0.078251 0.388656 1.578409
2005-08-29 15:29:17 51°13.597 2°56.09 -999 0.077943 0.387146 1.578409
2005-08-29 15:30:17 51°13.596 2°56.095 -999 0.075885 0.376784 1.578409
2005-08-29 15:31:17 51°13.596 2°56.092 -999 0.074444 0.36954 1.578409
2005-08-29 15:32:17 51°13.596 2°56.096 -999 0.073313 0.363837 1.578409
2005-08-29 15:33:17 51°13.598 2°56.095 -999 0.072489 0.359647 1.578409